Data for 04/29/2016

Time Sea-Level Adjusted Pressure Absolute Pressure Temperature Relative Humidity Dew Point   
(mb) (inHg) (mb) (inHg) (C) (F) (%) (C) (F)
00:05 1017 30.03 846 24.98 0.7 33.3 71 -3.9 25
00:10 1017 30.03 846 24.98 0.7 33.3 71 -4 24.9
00:15 1017 30.03 846 24.98 0.7 33.3 71 -4 24.9
00:20 1017 30.03 846 24.98 0.7 33.3 71 -3.9 25
00:25 1017 30.03 846 24.98 0.7 33.2 72 -3.8 25.1
00:30 1017 30.03 846 24.98 0.6 33.2 72 -3.8 25.2
00:35 1017 30.03 846 24.98 0.6 33.1 72 -3.8 25.2
00:40 1017 30.03 846 24.98 0.6 33 72 -3.9 25.1
00:45 1017 30.03 846 24.98 0.6 33 72 -3.9 25
00:50 1017 30.03 846 24.98 0.6 33 72 -4 24.9
00:55 1017 30.03 846 24.98 0.5 33 72 -4 24.8
01:00 1017 30.03 846 24.98 0.5 32.9 71 -4.1 24.7
01:05 1017 30.03 846 24.98 0.5 33 71 -4.1 24.7
01:10 1017 30.03 846 24.98 0.5 33 71 -4 24.7
01:15 1017 30.03 846 24.98 0.5 32.9 72 -4.1 24.7
01:20 1017 30.03 846 24.98 0.5 32.9 71 -4.1 24.7
01:25 1017 30.03 846 24.98 0.5 33 71 -4.2 24.5
01:30 1017 30.03 846 24.98 0.5 32.9 72 -4 24.8
01:35 1017 30.03 846 24.98 0.5 32.9 71 -4.1 24.6
01:40 1016 30 846 24.98 0.5 32.9 72 -4 24.9
01:45 1016 30 846 24.98 0.5 32.9 72 -4 24.9
01:50 1016 30 846 24.98 0.5 32.8 72 -4 24.9
01:55 1016 30 846 24.98 0.5 32.8 72 -4.1 24.7
02:00 1016 30 846 24.98 0.5 32.8 73 -3.9 25
02:05 1016 30 846 24.98 0.4 32.8 73 -3.9 25
02:10 1016 30 846 24.98 0.4 32.7 73 -3.8 25.2
02:15 1016 30 846 24.98 0.4 32.7 74 -3.8 25.2
02:20 1016 30 846 24.98 0.4 32.7 74 -3.7 25.3
02:25 1016 30 846 24.98 0.4 32.6 75 -3.6 25.5
02:30 1016 30 846 24.98 0.4 32.6 75 -3.5 25.6
02:35 1016 30 845 24.95 0.4 32.6 75 -3.6 25.5
02:40 1016 30 845 24.95 0.3 32.6 75 -3.6 25.5
02:45 1016 30 845 24.95 0.4 32.7 75 -3.6 25.5
02:50 1016 30 846 24.98 0.4 32.7 75 -3.5 25.6
02:55 1016 30 846 24.98 0.4 32.7 75 -3.5 25.6
03:00 1016 30 845 24.95 0.4 32.7 74 -3.6 25.5
03:05 1016 30 845 24.95 0.4 32.7 74 -3.7 25.3
03:10 1016 30 845 24.95 0.4 32.7 74 -3.8 25.2
03:15 1016 30 845 24.95 0.4 32.8 73 -3.9 25
03:20 1016 30 845 24.95 0.4 32.8 73 -3.8 25.2
03:25 1016 30 845 24.95 0.4 32.7 73 -3.8 25.1
03:30 1016 30 845 24.95 0.4 32.8 73 -3.9 25
03:35 1016 30 845 24.95 0.4 32.8 73 -3.9 25
03:40 1016 30 845 24.95 0.5 32.8 73 -3.9 25
03:45 1016 30 845 24.95 0.4 32.8 73 -3.8 25.1
03:50 1016 30 845 24.95 0.4 32.8 73 -3.9 25.1
03:55 1016 30 845 24.95 0.4 32.8 73 -3.8 25.2
04:00 1016 30 845 24.95 0.4 32.7 74 -3.8 25.2
04:05 1016 30 845 24.95 0.4 32.8 73 -3.8 25.2
04:10 1016 30 845 24.95 0.4 32.7 74 -3.7 25.3
04:15 1016 30 845 24.95 0.4 32.7 74 -3.7 25.3
04:20 1016 30 845 24.95 0.4 32.8 74 -3.7 25.3
04:25 1016 30 845 24.95 0.5 32.8 74 -3.7 25.4
04:30 1016 30 845 24.95 0.5 32.8 75 -3.6 25.6
04:35 1016 30 845 24.95 0.5 32.8 75 -3.5 25.7
04:40 1016 30 845 24.95 0.5 32.9 75 -3.4 25.9
04:45 1016 30 845 24.95 0.5 32.8 76 -3.4 26
04:50 1016 30 845 24.95 0.5 32.8 77 -3.2 26.3
04:55 1016 30 845 24.95 0.4 32.8 77 -3.2 26.2
05:00 1016 30 845 24.95 0.4 32.8 77 -3.2 26.3
05:05 1016 30 845 24.95 0.4 32.8 77 -3.2 26.3
05:10 1016 30 845 24.95 0.4 32.8 77 -3.2 26.3
05:15 1016 30 845 24.95 0.4 32.8 78 -3 26.5
05:20 1016 30 845 24.95 0.5 32.8 77 -3.1 26.4
05:25 1016 30 845 24.95 0.5 32.8 77 -3.1 26.5
05:30 1016 30 845 24.95 0.4 32.8 77 -3.1 26.4
05:35 1016 30 845 24.95 0.5 32.8 77 -3.1 26.5
05:40 1016 30 845 24.95 0.5 32.9 77 -3 26.5
05:45 1016 30 845 24.95 0.5 32.9 77 -3.1 26.4
05:50 1016 30 845 24.95 0.5 32.9 77 -3 26.6
05:55 1016 30 845 24.95 0.5 32.9 77 -3.1 26.5
06:00 1016 30 845 24.95 0.5 32.9 78 -2.9 26.7
06:05 1016 30 845 24.95 0.5 32.9 78 -3 26.7
06:10 1016 30 845 24.95 0.5 33 77 -3 26.7
06:15 1016 30 845 24.95 0.6 33 77 -3.1 26.5
06:20 1016 30 845 24.95 0.5 33 77 -3 26.6
06:25 1016 30 845 24.95 0.6 33 77 -3.1 26.5
06:30 1016 30 845 24.95 0.5 33 78 -2.9 26.7
06:35 1016 30 845 24.95 0.5 32.8 78 -2.9 26.8
06:40 1016 30 845 24.95 0.4 32.8 77 -3.1 26.5
06:45 1016 30 845 24.95 0.5 32.9 78 -2.9 26.7
06:50 1016 30 845 24.95 0.5 32.9 77 -3 26.6
06:55 1016 30 845 24.95 0.5 33 78 -2.9 26.8
07:00 1016 30 845 24.95 0.6 33.1 77 -2.9 26.7
07:05 1016 30 845 24.95 0.6 33.1 77 -3 26.7
07:10 1016 30 845 24.95 0.6 33.2 77 -2.9 26.9
07:15 1016 30 845 24.95 0.7 33.2 76 -3 26.6
07:20 1016 30 845 24.95 0.7 33.3 77 -2.9 26.7
07:25 1016 30 845 24.95 0.8 33.4 76 -3 26.6
07:30 1016 30 845 24.95 0.8 33.4 77 -2.8 26.9
07:35 1016 30 845 24.95 0.7 33.3 77 -2.8 26.9
07:40 1016 30 845 24.95 0.9 33.6 76 -3 26.7
07:45 1016 30 845 24.95 1 33.8 75 -2.9 26.8
07:50 1016 30 845 24.95 1 33.8 76 -2.8 27
07:55 1016 30 845 24.95 1 33.9 75 -3 26.7
08:00 1016 30 845 24.95 1.2 34.1 74 -3 26.6
08:05 1016 30 845 24.95 1.3 34.3 73 -3.1 26.4
08:10 1016 30 845 24.95 1.4 34.5 73 -3 26.6
08:15 1016 30 845 24.95 1.4 34.6 71 -3.3 26.1
08:20 1016 30 845 24.95 1.6 34.9 70 -3.3 26.1
08:25 1016 30 845 24.95 1.8 35.2 69 -3.2 26.2
08:30 1016 30 845 24.95 2 35.7 67 -3.4 25.9
08:35 1016 30 845 24.95 2.1 35.8 67 -3.3 26
08:40 1016 30 845 24.95 2.2 36 67 -3.3 26
08:45 1016 30 845 24.95 2.5 36.4 65 -3.4 25.9
08:50 1016 30 845 24.95 2.5 36.4 65 -3.4 25.9
08:55 1016 30 845 24.95 2.9 37.1 64 -3.4 26
09:00 1016 30 845 24.95 2.9 37.2 63 -3.4 25.8
09:05 1016 30 845 24.95 2.9 37.2 63 -3.4 25.8
09:10 1016 30 845 24.95 2.9 37.1 62 -3.6 25.5
09:15 1016 30 845 24.95 2.9 37.2 62 -3.6 25.5
09:20 1016 30 845 24.95 3 37.4 63 -3.4 25.9
09:25 1016 30 845 24.95 3.2 37.8 62 -3.3 26.1
09:30 1016 30 845 24.95 3.4 38.1 61 -3.5 25.7
09:35 1015 29.97 845 24.95 3.6 38.5 60 -3.5 25.6
09:40 1015 29.97 845 24.95 3.9 39 59 -3.4 25.8
09:45 1015 29.97 844 24.92 4 39.3 58 -3.5 25.7
09:50 1015 29.97 844 24.92 4.5 40.1 56 -3.6 25.6
09:55 1015 29.97 844 24.92 5 40.9 54 -3.7 25.4
10:00 1015 29.97 844 24.92 4.9 40.8 56 -3 26.5
10:05 1015 29.97 844 24.92 5.1 41.1 56 -3 26.5
10:10 1015 29.97 844 24.92 5.2 41.4 55 -3 26.5
10:15 1015 29.97 844 24.92 5.6 42 54 -3.1 26.4
10:20 1015 29.97 844 24.92 5.2 41.3 55 -3.2 26.3
10:25 1015 29.97 844 24.92 5.4 41.7 55 -3 26.7
10:30 1015 29.97 844 24.92 5.4 41.8 55 -2.9 26.7
10:35 1015 29.97 844 24.92 5.5 42 54 -3 26.6
10:40 1015 29.97 844 24.92 5.5 41.8 53 -3.3 26
10:45 1015 29.97 844 24.92 6.1 42.9 53 -2.8 27
10:50 1015 29.97 844 24.92 6.4 43.5 53 -2.5 27.6
10:55 1015 29.97 844 24.92 6.4 43.4 52 -2.9 26.8
11:00 1015 29.97 844 24.92 6.1 43 53 -2.8 27
11:05 1015 29.97 844 24.92 6.2 43.2 54 -2.5 27.6
11:10 1015 29.97 844 24.92 6.3 43.4 53 -2.4 27.7
11:15 1015 29.97 844 24.92 6 42.9 53 -2.8 27
11:20 1015 29.97 844 24.92 6.5 43.7 52 -2.7 27.1
11:25 1015 29.97 844 24.92 6.8 44.2 51 -2.5 27.5
11:30 1015 29.97 844 24.92 6.4 43.6 54 -2.2 28
11:35 1014 29.94 844 24.92 6.4 43.5 53 -2.6 27.4
11:40 1014 29.94 844 24.92 6.5 43.7 52 -2.7 27.2
11:45 1014 29.94 844 24.92 6.7 44 51 -2.7 27.2
11:50 1014 29.94 844 24.92 6.9 44.4 51 -2.5 27.5
11:55 1014 29.94 844 24.92 7.4 45.4 51 -2 28.5
12:00 1014 29.94 843 24.89 7.2 44.9 52 -2 28.5
12:05 1014 29.94 843 24.89 7.2 45 52 -1.9 28.5
12:10 1014 29.94 843 24.89 7.8 46.1 49 -2.1 28.3
12:15 1014 29.94 843 24.89 7.7 45.8 49 -2.3 27.9
12:20 1014 29.94 843 24.89 7.5 45.5 50 -2.1 28.2
12:25 1014 29.94 843 24.89 7.5 45.5 50 -2.1 28.1
12:30 1014 29.94 843 24.89 7.4 45.3 51 -2 28.4
12:35 1014 29.94 843 24.89 7.8 46 49 -2.2 28
12:40 1014 29.94 843 24.89 8 46.4 50 -1.7 29
12:45 1014 29.94 843 24.89 7.6 45.6 50 -2 28.3
12:50 1014 29.94 843 24.89 7.5 45.4 52 -1.8 28.7
12:55 1014 29.94 843 24.89 7.6 45.6 50 -2.1 28.2
13:00 1014 29.94 843 24.89 7.9 46.2 50 -1.9 28.7
13:05 1014 29.94 843 24.89 7.5 45.6 52 -1.7 28.9
13:10 1014 29.94 843 24.89 7.5 45.5 52 -1.7 28.9
13:15 1014 29.94 843 24.89 8.3 47 51 -1.3 29.7
13:20 1014 29.94 843 24.89 8.1 46.5 51 -1.5 29.3
13:25 1014 29.94 843 24.89 8.1 46.7 50 -1.5 29.2
13:30 1014 29.94 843 24.89 8 46.5 51 -1.4 29.5
13:35 1014 29.94 843 24.89 7.6 45.7 51 -1.9 28.6
13:40 1014 29.94 843 24.89 8 46.4 51 -1.4 29.4
13:45 1014 29.94 843 24.89 7.9 46.3 51 -1.5 29.3
13:50 1014 29.94 843 24.89 7.7 45.9 52 -1.4 29.5
13:55 1014 29.94 843 24.89 7.9 46.2 51 -1.7 29
14:00 1014 29.94 843 24.89 8.3 46.9 50 -1.5 29.3
14:05 1014 29.94 843 24.89 8.3 46.9 51 -1.3 29.6
14:10 1014 29.94 843 24.89 7.9 46.3 52 -1.3 29.7
14:15 1013 29.91 843 24.89 8.1 46.7 51 -1.5 29.3
14:20 1013 29.91 843 24.89 7.8 46.1 53 -1.2 29.8
14:25 1013 29.91 843 24.89 7.6 45.7 52 -1.5 29.3
14:30 1013 29.91 843 24.89 7.7 45.8 52 -1.6 29.1
14:35 1013 29.91 843 24.89 7.7 45.9 52 -1.6 29.1
14:40 1013 29.91 843 24.89 7.9 46.2 50 -1.8 28.7
14:45 1013 29.91 843 24.89 7.6 45.7 52 -1.5 29.3
14:50 1013 29.91 843 24.89 7.7 45.8 51 -1.7 28.9
14:55 1013 29.91 843 24.89 7.9 46.2 51 -1.6 29.2
15:00 1013 29.91 843 24.89 8 46.4 51 -1.5 29.2
15:05 1013 29.91 843 24.89 8.1 46.6 50 -1.7 28.9
15:10 1013 29.91 843 24.89 8 46.5 51 -1.6 29.2
15:15 1013 29.91 843 24.89 7.8 46 52 -1.5 29.3
15:20 1014 29.94 843 24.89 7.8 46.1 52 -1.5 29.3
15:25 1014 29.94 843 24.89 7.7 45.8 52 -1.7 29
15:30 1014 29.94 843 24.89 7.6 45.7 52 -1.5 29.2
15:35 1014 29.94 843 24.89 7.5 45.5 53 -1.4 29.5
15:40 1014 29.94 843 24.89 7.5 45.5 53 -1.4 29.4
15:45 1014 29.94 843 24.89 7.3 45.1 55 -1.3 29.7
15:50 1014 29.94 843 24.89 7.4 45.3 54 -1.4 29.5
15:55 1014 29.94 843 24.89 7.6 45.6 53 -1.5 29.4
16:00 1014 29.94 843 24.89 7.8 46 52 -1.5 29.3
16:05 1014 29.94 843 24.89 8 46.3 52 -1.1 30
16:10 1014 29.94 843 24.89 7.9 46.1 53 -1 30.1
16:15 1014 29.94 843 24.89 7.8 46 53 -1.1 30.1
16:20 1014 29.94 843 24.89 7.9 46.3 53 -1 30.1
16:25 1014 29.94 843 24.89 7.7 45.9 54 -0.9 30.4
16:30 1014 29.94 843 24.89 7.4 45.3 54 -1.2 29.8
16:35 1014 29.94 843 24.89 7.7 45.9 55 -0.7 30.7
16:40 1014 29.94 843 24.89 7.6 45.6 55 -0.9 30.4
16:45 1014 29.94 843 24.89 7.7 45.9 56 -0.5 31.1
16:50 1014 29.94 843 24.89 7.4 45.3 56 -0.8 30.6
16:55 1014 29.94 843 24.89 7 44.7 57 -0.8 30.5
17:00 1014 29.94 843 24.89 6.9 44.3 57 -1 30.2
17:05 1014 29.94 843 24.89 6.7 44.1 58 -1 30.2
17:10 1014 29.94 843 24.89 6.7 44.1 58 -1.1 30.1
17:15 1014 29.94 843 24.89 6.6 43.9 58 -1.1 30.1
17:20 1014 29.94 843 24.89 6.5 43.8 58 -1.2 29.9
17:25 1014 29.94 843 24.89 6.6 43.9 58 -1 30.1
17:30 1014 29.94 843 24.89 6.5 43.8 59 -0.9 30.3
17:35 1014 29.94 844 24.92 6.4 43.6 60 -0.8 30.6
17:40 1014 29.94 844 24.92 6.4 43.5 59 -0.9 30.3
17:45 1014 29.94 844 24.92 6.4 43.4 60 -0.9 30.4
17:50 1014 29.94 844 24.92 6.4 43.6 60 -0.7 30.7
17:55 1014 29.94 844 24.92 6.5 43.6 59 -0.9 30.3
18:00 1014 29.94 844 24.92 6.3 43.3 59 -1.1 30.1
18:05 1015 29.97 844 24.92 6.2 43.1 60 -1 30.2
18:10 1015 29.97 844 24.92 6.1 43 60 -1.2 29.9
18:15 1015 29.97 844 24.92 6 42.8 60 -1.1 30
18:20 1015 29.97 844 24.92 6 42.7 60 -1.3 29.7
18:25 1015 29.97 844 24.92 6 42.8 59 -1.3 29.6
18:30 1015 29.97 844 24.92 6 42.7 60 -1.2 29.9
18:35 1015 29.97 844 24.92 5.9 42.6 61 -1 30.1
18:40 1015 29.97 844 24.92 5.8 42.5 61 -1.1 30
18:45 1015 29.97 844 24.92 5.8 42.4 62 -1 30.2
18:50 1015 29.97 844 24.92 5.7 42.3 62 -1.1 30
18:55 1015 29.97 844 24.92 5.7 42.2 62 -1.1 30
19:00 1015 29.97 844 24.92 5.6 42.1 62 -1 30.2
19:05 1015 29.97 844 24.92 5.6 42.1 62 -1 30.2
19:10 1015 29.97 844 24.92 5.6 42.1 62 -1.2 29.9
19:15 1015 29.97 844 24.92 5.6 42.1 62 -1.2 29.9
19:20 1015 29.97 844 24.92 5.5 41.9 62 -1.2 29.9
19:25 1015 29.97 844 24.92 5.5 41.9 62 -1.2 29.9
19:30 1015 29.97 844 24.92 5.4 41.8 62 -1.2 29.9
19:35 1015 29.97 845 24.95 5.4 41.7 62 -1.3 29.7
19:40 1015 29.97 845 24.95 5.4 41.7 62 -1.3 29.7
19:45 1015 29.97 845 24.95 5.3 41.6 63 -1.1 30
19:50 1015 29.97 845 24.95 5.2 41.4 63 -1.2 29.8
19:55 1015 29.97 845 24.95 5.1 41.3 64 -1.2 29.9
20:00 1016 30 845 24.95 5.1 41.1 64 -1.3 29.7
20:05 1015 29.97 845 24.95 5 41.1 63 -1.3 29.6
20:10 1016 30 845 24.95 5.1 41.1 63 -1.4 29.6
20:15 1016 30 845 24.95 5.1 41.2 62 -1.5 29.4
20:20 1016 30 845 24.95 5.1 41.3 62 -1.5 29.3
20:25 1016 30 845 24.95 5.1 41.2 62 -1.5 29.3
20:30 1016 30 845 24.95 5.1 41.2 62 -1.5 29.3
20:35 1016 30 845 24.95 5 41.1 63 -1.5 29.4
20:40 1016 30 845 24.95 5 41 63 -1.5 29.3
20:45 1016 30 845 24.95 5 41 62 -1.6 29.1
20:50 1016 30 845 24.95 5 40.9 63 -1.5 29.2
20:55 1016 30 845 24.95 5 40.9 62 -1.6 29.1
21:00 1016 30 845 24.95 4.9 40.9 63 -1.6 29.1
21:05 1016 30 845 24.95 4.9 40.9 62 -1.7 28.9
21:10 1016 30 845 24.95 4.9 40.9 62 -1.7 28.9
21:15 1016 30 845 24.95 4.9 40.8 62 -1.7 28.9
21:20 1016 30 845 24.95 4.8 40.7 63 -1.7 29
21:25 1016 30 845 24.95 4.8 40.7 62 -1.7 28.9
21:30 1016 30 846 24.98 4.8 40.6 63 -1.7 29
21:35 1016 30 846 24.98 4.8 40.6 63 -1.7 29
21:40 1016 30 846 24.98 4.8 40.6 63 -1.6 29.1
21:45 1016 30 846 24.98 4.7 40.5 64 -1.5 29.2
21:50 1016 30 846 24.98 4.7 40.4 64 -1.6 29.1
21:55 1016 30 846 24.98 4.6 40.4 64 -1.5 29.3
22:00 1016 30 846 24.98 4.6 40.3 65 -1.5 29.3
22:05 1016 30 846 24.98 4.6 40.2 64 -1.6 29.2
22:10 1017 30.03 846 24.98 4.6 40.2 65 -1.5 29.2
22:15 1017 30.03 846 24.98 4.5 40.2 65 -1.5 29.4
22:20 1017 30.03 846 24.98 4.5 40.1 65 -1.5 29.2
22:25 1017 30.03 846 24.98 4.5 40.1 65 -1.5 29.3
22:30 1017 30.03 846 24.98 4.5 40.1 65 -1.6 29.1
22:35 1017 30.03 846 24.98 4.5 40.1 64 -1.6 29.1
22:40 1017 30.03 846 24.98 4.5 40.1 65 -1.5 29.2
22:45 1017 30.03 846 24.98 4.5 40.1 65 -1.5 29.2
22:50 1017 30.03 846 24.98 4.5 40 65 -1.6 29.1
22:55 1017 30.03 846 24.98 4.5 40.1 65 -1.6 29.1
23:00 1017 30.03 846 24.98 4.5 40.1 64 -1.6 29.1
23:05 1017 30.03 846 24.98 4.5 40.1 65 -1.5 29.3
23:10 1017 30.03 846 24.98 4.4 40 65 -1.5 29.3
23:15 1017 30.03 846 24.98 4.4 39.9 65 -1.6 29.2
23:20 1017 30.03 846 24.98 4.4 39.9 66 -1.5 29.3
23:25 1017 30.03 846 24.98 4.3 39.8 66 -1.6 29.2
23:30 1017 30.03 846 24.98 4.3 39.8 66 -1.5 29.3
23:35 1017 30.03 846 24.98 4.3 39.7 66 -1.4 29.4
23:40 1017 30.03 846 24.98 4.3 39.7 66 -1.6 29.1
23:45 1017 30.03 846 24.98 4.3 39.7 66 -1.5 29.4
23:50 1017 30.03 846 24.98 4.2 39.6 67 -1.4 29.4
23:55 1017 30.03 846 24.98 4.2 39.5 67 -1.5 29.4
24:00 1017 30.03 846 24.98 4.1 39.4 67 -1.4 29.4